sensor_id;sensor_type;location;lat;lon;timestamp;pressure;altitude;pressure_sealevel;temperature;humidity
64687;BME280;51113;53.646;-113.674;2023-05-07T00:02:22;93461.91;;;16.15;28.25
64687;BME280;51113;53.646;-113.674;2023-05-07T00:04:51;93453.31;;;16.24;28.40
64687;BME280;51113;53.646;-113.674;2023-05-07T00:07:20;93472.72;;;16.23;27.86
64687;BME280;51113;53.646;-113.674;2023-05-07T00:09:48;93452.78;;;16.13;28.18
64687;BME280;51113;53.646;-113.674;2023-05-07T00:12:17;93478.75;;;16.23;28.73
64687;BME280;51113;53.646;-113.674;2023-05-07T00:14:45;93450.63;;;16.15;28.21
64687;BME280;51113;53.646;-113.674;2023-05-07T00:17:14;93470.47;;;16.07;28.52
64687;BME280;51113;53.646;-113.674;2023-05-07T00:19:43;93478.81;;;16.09;28.38
64687;BME280;51113;53.646;-113.674;2023-05-07T00:22:11;93452.84;;;15.99;27.86
64687;BME280;51113;53.646;-113.674;2023-05-07T00:24:40;93465.47;;;15.97;27.94
64687;BME280;51113;53.646;-113.674;2023-05-07T00:27:09;93471.31;;;16.17;27.91
64687;BME280;51113;53.646;-113.674;2023-05-07T00:29:37;93476.41;;;16.22;28.24
64687;BME280;51113;53.646;-113.674;2023-05-07T00:32:05;93466.59;;;16.05;27.58
64687;BME280;51113;53.646;-113.674;2023-05-07T00:34:34;93474.16;;;16.06;27.86
64687;BME280;51113;53.646;-113.674;2023-05-07T00:37:03;93475.19;;;15.97;27.58
64687;BME280;51113;53.646;-113.674;2023-05-07T00:39:33;93474.16;;;16.06;27.70
64687;BME280;51113;53.646;-113.674;2023-05-07T00:42:02;93480.59;;;16.00;27.78
64687;BME280;51113;53.646;-113.674;2023-05-07T00:44:30;93449.03;;;15.83;27.39
64687;BME280;51113;53.646;-113.674;2023-05-07T00:47:02;93446.91;;;15.85;27.51
64687;BME280;51113;53.646;-113.674;2023-05-07T00:49:42;93473.22;;;16.02;27.59
64687;BME280;51113;53.646;-113.674;2023-05-07T00:52:14;93476.53;;;15.94;27.79
64687;BME280;51113;53.646;-113.674;2023-05-07T00:54:44;93478.50;;;15.89;27.93
64687;BME280;51113;53.646;-113.674;2023-05-07T00:57:13;93453.16;;;15.75;28.07
64687;BME280;51113;53.646;-113.674;2023-05-07T00:59:42;93476.78;;;15.84;27.65
64687;BME280;51113;53.646;-113.674;2023-05-07T01:02:11;93478.38;;;15.71;27.73
64687;BME280;51113;53.646;-113.674;2023-05-07T01:04:40;93463.84;;;15.51;27.90
64687;BME280;51113;53.646;-113.674;2023-05-07T01:07:10;93446.72;;;15.45;27.63
64687;BME280;51113;53.646;-113.674;2023-05-07T01:09:38;93487.22;;;15.62;28.06
64687;BME280;51113;53.646;-113.674;2023-05-07T01:12:08;93478.38;;;15.71;28.59
64687;BME280;51113;53.646;-113.674;2023-05-07T01:14:37;93487.69;;;15.64;28.34
64687;BME280;51113;53.646;-113.674;2023-05-07T01:17:06;93471.59;;;15.57;28.46
64687;BME280;51113;53.646;-113.674;2023-05-07T01:19:34;93461.56;;;15.36;28.55
64687;BME280;51113;53.646;-113.674;2023-05-07T01:22:08;93486.81;;;15.55;28.96
64687;BME280;51113;53.646;-113.674;2023-05-07T01:24:38;93486.06;;;15.54;29.16
64687;BME280;51113;53.646;-113.674;2023-05-07T01:27:07;93495.84;;;15.48;28.61
64687;BME280;51113;53.646;-113.674;2023-05-07T01:29:35;93488.78;;;15.49;28.23
64687;BME280;51113;53.646;-113.674;2023-05-07T01:32:05;93496.44;;;15.45;28.56
64687;BME280;51113;53.646;-113.674;2023-05-07T01:34:34;93489.09;;;15.34;28.47
64687;BME280;51113;53.646;-113.674;2023-05-07T01:37:04;93488.91;;;15.30;28.03
64687;BME280;51113;53.646;-113.674;2023-05-07T01:39:37;93486.41;;;15.25;28.00
64687;BME280;51113;53.646;-113.674;2023-05-07T01:42:07;93491.16;;;15.23;28.53
64687;BME280;51113;53.646;-113.674;2023-05-07T01:44:36;93483.88;;;15.20;28.73
64687;BME280;51113;53.646;-113.674;2023-05-07T01:47:04;93459.28;;;14.94;28.62
64687;BME280;51113;53.646;-113.674;2023-05-07T01:49:34;93493.00;;;15.09;29.39
64687;BME280;51113;53.646;-113.674;2023-05-07T01:52:03;93466.38;;;14.93;29.61
64687;BME280;51113;53.646;-113.674;2023-05-07T01:54:32;93471.09;;;14.77;30.15
64687;BME280;51113;53.646;-113.674;2023-05-07T01:57:00;93492.41;;;14.98;30.23
64687;BME280;51113;53.646;-113.674;2023-05-07T01:59:29;93497.16;;;14.96;30.49
64687;BME280;51113;53.646;-113.674;2023-05-07T02:01:57;93495.81;;;14.85;30.26
64687;BME280;51113;53.646;-113.674;2023-05-07T02:04:26;93509.56;;;14.77;30.59
64687;BME280;51113;53.646;-113.674;2023-05-07T02:06:54;93478.75;;;14.60;29.88
64687;BME280;51113;53.646;-113.674;2023-05-07T02:09:23;93501.22;;;14.75;30.00
64687;BME280;51113;53.646;-113.674;2023-05-07T02:11:51;93494.81;;;14.67;30.29
64687;BME280;51113;53.646;-113.674;2023-05-07T02:14:19;93504.78;;;14.65;30.09
64687;BME280;51113;53.646;-113.674;2023-05-07T02:16:48;93481.06;;;14.48;29.52
64687;BME280;51113;53.646;-113.674;2023-05-07T02:19:17;93502.84;;;14.57;29.80
64687;BME280;51113;53.646;-113.674;2023-05-07T02:21:46;93502.34;;;14.55;29.64
64687;BME280;51113;53.646;-113.674;2023-05-07T02:24:15;93513.75;;;14.45;29.30
64687;BME280;51113;53.646;-113.674;2023-05-07T02:26:43;93483.41;;;14.31;29.93
64687;BME280;51113;53.646;-113.674;2023-05-07T02:29:12;93506.22;;;14.44;30.10
64687;BME280;51113;53.646;-113.674;2023-05-07T02:31:40;93509.16;;;14.37;30.25
64687;BME280;51113;53.646;-113.674;2023-05-07T02:34:09;93481.94;;;14.25;30.16
64687;BME280;51113;53.646;-113.674;2023-05-07T02:36:37;93502.97;;;14.33;30.55
64687;BME280;51113;53.646;-113.674;2023-05-07T02:39:06;93503.75;;;14.34;30.80
64687;BME280;51113;53.646;-113.674;2023-05-07T02:41:35;93505.09;;;14.31;31.14
64687;BME280;51113;53.646;-113.674;2023-05-07T02:44:04;93472.25;;;14.11;31.40
64687;BME280;51113;53.646;-113.674;2023-05-07T02:46:32;93511.47;;;14.25;31.91
64687;BME280;51113;53.646;-113.674;2023-05-07T02:49:01;93511.81;;;14.18;32.12
64687;BME280;51113;53.646;-113.674;2023-05-07T02:51:30;93503.50;;;14.16;32.05
64687;BME280;51113;53.646;-113.674;2023-05-07T02:53:59;93500.88;;;14.16;32.00
64687;BME280;51113;53.646;-113.674;2023-05-07T02:56:28;93511.91;;;14.13;32.52
64687;BME280;51113;53.646;-113.674;2023-05-07T02:58:57;93502.88;;;14.06;32.31
64687;BME280;51113;53.646;-113.674;2023-05-07T03:01:25;93482.50;;;13.89;32.48
64687;BME280;51113;53.646;-113.674;2023-05-07T03:03:54;93477.09;;;13.85;32.90
64687;BME280;51113;53.646;-113.674;2023-05-07T03:06:23;93501.19;;;13.96;32.77
64687;BME280;51113;53.646;-113.674;2023-05-07T03:08:52;93479.78;;;13.80;32.35
64687;BME280;51113;53.646;-113.674;2023-05-07T03:11:20;93477.44;;;13.79;32.16
64687;BME280;51113;53.646;-113.674;2023-05-07T03:13:49;93496.63;;;13.88;32.87
64687;BME280;51113;53.646;-113.674;2023-05-07T03:16:18;93496.13;;;13.86;32.43
64687;BME280;51113;53.646;-113.674;2023-05-07T03:18:47;93500.38;;;13.82;32.55
64687;BME280;51113;53.646;-113.674;2023-05-07T03:21:15;93478.16;;;13.66;32.58
64687;BME280;51113;53.646;-113.674;2023-05-07T03:23:44;93498.88;;;13.76;33.16
64687;BME280;51113;53.646;-113.674;2023-05-07T03:26:13;93478.22;;;13.61;32.71
64687;BME280;51113;53.646;-113.674;2023-05-07T03:28:41;93509.81;;;13.78;33.09
64687;BME280;51113;53.646;-113.674;2023-05-07T03:31:10;93505.25;;;13.70;33.45
64687;BME280;51113;53.646;-113.674;2023-05-07T03:33:52;93502.13;;;13.68;33.55
64687;BME280;51113;53.646;-113.674;2023-05-07T03:36:22;93511.31;;;13.65;33.64
64687;BME280;51113;53.646;-113.674;2023-05-07T03:38:51;93507.72;;;13.61;33.58
64687;BME280;51113;53.646;-113.674;2023-05-07T03:41:20;93519.69;;;13.62;33.80
64687;BME280;51113;53.646;-113.674;2023-05-07T03:43:49;93513.50;;;13.58;33.71
64687;BME280;51113;53.646;-113.674;2023-05-07T03:46:17;93518.50;;;13.54;33.77
64687;BME280;51113;53.646;-113.674;2023-05-07T03:48:46;93502.56;;;13.37;34.70
64687;BME280;51113;53.646;-113.674;2023-05-07T03:51:14;93522.72;;;13.50;34.61
64687;BME280;51113;53.646;-113.674;2023-05-07T03:53:43;93521.19;;;13.49;34.61
64687;BME280;51113;53.646;-113.674;2023-05-07T03:56:11;93507.34;;;13.30;34.78
64687;BME280;51113;53.646;-113.674;2023-05-07T03:58:40;93495.97;;;13.21;34.90
64687;BME280;51113;53.646;-113.674;2023-05-07T04:01:08;93529.19;;;13.34;35.27
64687;BME280;51113;53.646;-113.674;2023-05-07T04:03:37;93528.97;;;13.31;35.72
64687;BME280;51113;53.646;-113.674;2023-05-07T04:06:06;93501.56;;;13.09;35.84
64687;BME280;51113;53.646;-113.674;2023-05-07T04:08:34;93518.88;;;13.24;35.46
64687;BME280;51113;53.646;-113.674;2023-05-07T04:11:03;93508.78;;;13.17;35.91
64687;BME280;51113;53.646;-113.674;2023-05-07T04:13:32;93507.56;;;13.10;36.16
64687;BME280;51113;53.646;-113.674;2023-05-07T04:16:02;93506.56;;;13.06;35.82
64687;BME280;51113;53.646;-113.674;2023-05-07T04:18:31;93519.38;;;13.02;35.99
64687;BME280;51113;53.646;-113.674;2023-05-07T04:21:00;93492.47;;;12.83;36.04
64687;BME280;51113;53.646;-113.674;2023-05-07T04:23:28;93513.44;;;12.97;36.46
64687;BME280;51113;53.646;-113.674;2023-05-07T04:25:57;93482.66;;;12.75;37.05
64687;BME280;51113;53.646;-113.674;2023-05-07T04:28:25;93515.88;;;12.88;36.90
64687;BME280;51113;53.646;-113.674;2023-05-07T04:30:54;93510.22;;;12.81;37.19
64687;BME280;51113;53.646;-113.674;2023-05-07T04:33:23;93508.94;;;12.78;37.32
64687;BME280;51113;53.646;-113.674;2023-05-07T04:35:51;93515.25;;;12.72;37.53
64687;BME280;51113;53.646;-113.674;2023-05-07T04:38:20;93508.56;;;12.66;37.84
64687;BME280;51113;53.646;-113.674;2023-05-07T04:40:48;93504.66;;;12.64;38.06
64687;BME280;51113;53.646;-113.674;2023-05-07T04:43:17;93484.81;;;12.44;38.25
64687;BME280;51113;53.646;-113.674;2023-05-07T04:45:47;93479.69;;;12.34;38.45
64687;BME280;51113;53.646;-113.674;2023-05-07T04:48:17;93505.13;;;12.42;38.85
64687;BME280;51113;53.646;-113.674;2023-05-07T04:50:49;93489.44;;;12.23;39.19
64687;BME280;51113;53.646;-113.674;2023-05-07T04:53:18;93479.88;;;12.13;39.29
64687;BME280;51113;53.646;-113.674;2023-05-07T04:55:46;93507.38;;;12.24;39.48
64687;BME280;51113;53.646;-113.674;2023-05-07T04:58:15;93497.78;;;12.20;39.78
64687;BME280;51113;53.646;-113.674;2023-05-07T05:00:44;93492.38;;;12.11;40.24
64687;BME280;51113;53.646;-113.674;2023-05-07T05:03:12;93509.88;;;12.06;40.18
64687;BME280;51113;53.646;-113.674;2023-05-07T05:05:41;93490.75;;;11.86;40.43
64687;BME280;51113;53.646;-113.674;2023-05-07T05:08:10;93508.13;;;11.96;41.09
64687;BME280;51113;53.646;-113.674;2023-05-07T05:10:38;93496.75;;;11.87;40.83
64687;BME280;51113;53.646;-113.674;2023-05-07T05:13:07;93505.06;;;11.89;41.30
64687;BME280;51113;53.646;-113.674;2023-05-07T05:15:36;93502.00;;;11.77;41.78
64687;BME280;51113;53.646;-113.674;2023-05-07T05:18:04;93471.97;;;11.55;41.66
64687;BME280;51113;53.646;-113.674;2023-05-07T05:20:33;93507.22;;;11.72;42.01
64687;BME280;51113;53.646;-113.674;2023-05-07T05:23:02;93502.03;;;11.72;42.24
64687;BME280;51113;53.646;-113.674;2023-05-07T05:25:31;93479.00;;;11.50;42.54
64687;BME280;51113;53.646;-113.674;2023-05-07T05:28:00;93477.50;;;11.44;43.19
64687;BME280;51113;53.646;-113.674;2023-05-07T05:30:29;93497.16;;;11.60;43.33
64687;BME280;51113;53.646;-113.674;2023-05-07T05:32:57;93471.53;;;11.38;43.69
64687;BME280;51113;53.646;-113.674;2023-05-07T05:35:26;93491.47;;;11.53;44.01
64687;BME280;51113;53.646;-113.674;2023-05-07T05:37:54;93487.59;;;11.50;43.76
64687;BME280;51113;53.646;-113.674;2023-05-07T05:40:23;93491.47;;;11.53;44.09
64687;BME280;51113;53.646;-113.674;2023-05-07T05:42:51;93494.88;;;11.48;43.95
64687;BME280;51113;53.646;-113.674;2023-05-07T05:45:21;93465.59;;;11.32;44.54
64687;BME280;51113;53.646;-113.674;2023-05-07T05:47:50;93495.44;;;11.45;44.81
64687;BME280;51113;53.646;-113.674;2023-05-07T05:50:19;93478.56;;;11.38;44.91
64687;BME280;51113;53.646;-113.674;2023-05-07T05:52:47;93479.38;;;11.33;45.34
64687;BME280;51113;53.646;-113.674;2023-05-07T05:55:15;93484.09;;;11.26;45.54
64687;BME280;51113;53.646;-113.674;2023-05-07T05:57:44;93476.84;;;11.23;45.88
64687;BME280;51113;53.646;-113.674;2023-05-07T06:00:13;93472.69;;;11.17;45.99
64687;BME280;51113;53.646;-113.674;2023-05-07T06:02:43;93479.47;;;11.13;46.15
64687;BME280;51113;53.646;-113.674;2023-05-07T06:05:12;93478.25;;;11.00;46.74
64687;BME280;51113;53.646;-113.674;2023-05-07T06:07:40;93485.78;;;10.96;47.49
64687;BME280;51113;53.646;-113.674;2023-05-07T06:10:09;93478.53;;;10.93;47.68
64687;BME280;51113;53.646;-113.674;2023-05-07T06:12:38;93478.53;;;10.88;48.16
64687;BME280;51113;53.646;-113.674;2023-05-07T06:15:06;93483.50;;;10.85;48.22
64687;BME280;51113;53.646;-113.674;2023-05-07T06:17:35;93483.50;;;10.85;48.33
64687;BME280;51113;53.646;-113.674;2023-05-07T06:20:04;93488.19;;;10.83;48.51
64687;BME280;51113;53.646;-113.674;2023-05-07T06:22:34;93463.03;;;10.73;48.59
64687;BME280;51113;53.646;-113.674;2023-05-07T06:25:04;93480.13;;;10.79;48.95
64687;BME280;51113;53.646;-113.674;2023-05-07T06:27:33;93472.59;;;10.78;49.12
64687;BME280;51113;53.646;-113.674;2023-05-07T06:30:03;93482.75;;;10.79;49.34
64687;BME280;51113;53.646;-113.674;2023-05-07T06:32:32;93453.44;;;10.63;49.13
64687;BME280;51113;53.646;-113.674;2023-05-07T06:35:01;93453.47;;;10.58;49.38
64687;BME280;51113;53.646;-113.674;2023-05-07T06:37:30;93480.94;;;10.70;49.92
64687;BME280;51113;53.646;-113.674;2023-05-07T06:39:58;93479.66;;;10.67;50.43
64687;BME280;51113;53.646;-113.674;2023-05-07T06:42:26;93473.69;;;10.66;50.09
64687;BME280;51113;53.646;-113.674;2023-05-07T06:44:55;93482.28;;;10.62;50.71
64687;BME280;51113;53.646;-113.674;2023-05-07T06:47:24;93469.81;;;10.54;50.92
64687;BME280;51113;53.646;-113.674;2023-05-07T06:49:53;93474.00;;;10.50;50.96
64687;BME280;51113;53.646;-113.674;2023-05-07T06:52:22;93459.22;;;10.45;51.55
64687;BME280;51113;53.646;-113.674;2023-05-07T06:54:51;93431.50;;;10.20;51.77
64687;BME280;51113;53.646;-113.674;2023-05-07T06:57:20;93460.53;;;10.32;52.00
64687;BME280;51113;53.646;-113.674;2023-05-07T06:59:49;93461.06;;;10.29;52.40
64687;BME280;51113;53.646;-113.674;2023-05-07T07:02:18;93469.63;;;10.25;52.52
64687;BME280;51113;53.646;-113.674;2023-05-07T07:04:46;93464.97;;;10.22;52.85
64687;BME280;51113;53.646;-113.674;2023-05-07T07:07:15;93462.59;;;10.15;53.00
64687;BME280;51113;53.646;-113.674;2023-05-07T07:09:44;93433.31;;;9.94;53.36
64687;BME280;51113;53.646;-113.674;2023-05-07T07:12:12;93438.00;;;9.92;53.81
64687;BME280;51113;53.646;-113.674;2023-05-07T07:14:41;93453.28;;;10.04;53.79
64687;BME280;51113;53.646;-113.674;2023-05-07T07:17:10;93459.25;;;10.04;54.00
64687;BME280;51113;53.646;-113.674;2023-05-07T07:19:38;93454.59;;;10.01;54.29
64687;BME280;51113;53.646;-113.674;2023-05-07T07:22:07;93460.81;;;10.00;54.69
64687;BME280;51113;53.646;-113.674;2023-05-07T07:24:37;93457.69;;;9.98;54.63
64687;BME280;51113;53.646;-113.674;2023-05-07T07:27:05;93461.06;;;9.94;55.17
64687;BME280;51113;53.646;-113.674;2023-05-07T07:29:34;93456.94;;;9.93;55.29
64687;BME280;51113;53.646;-113.674;2023-05-07T07:32:03;93447.59;;;9.87;55.89
64687;BME280;51113;53.646;-113.674;2023-05-07T07:34:31;93452.53;;;9.78;56.01
64687;BME280;51113;53.646;-113.674;2023-05-07T07:37:01;93446.28;;;9.74;56.06
64687;BME280;51113;53.646;-113.674;2023-05-07T07:39:33;93442.94;;;9.68;56.21
64687;BME280;51113;53.646;-113.674;2023-05-07T07:42:01;93441.38;;;9.67;56.39
64687;BME280;51113;53.646;-113.674;2023-05-07T07:44:30;93438.00;;;9.62;56.79
64687;BME280;51113;53.646;-113.674;2023-05-07T07:46:59;93449.41;;;9.56;57.33
64687;BME280;51113;53.646;-113.674;2023-05-07T07:49:27;93439.03;;;9.56;57.07
64687;BME280;51113;53.646;-113.674;2023-05-07T07:51:56;93448.63;;;9.55;57.52
64687;BME280;51113;53.646;-113.674;2023-05-07T07:54:27;93452.25;;;9.54;57.62
64687;BME280;51113;53.646;-113.674;2023-05-07T07:56:57;93448.88;;;9.54;57.60
64687;BME280;51113;53.646;-113.674;2023-05-07T07:59:26;93436.97;;;9.53;57.90
64687;BME280;51113;53.646;-113.674;2023-05-07T08:01:55;93442.91;;;9.53;58.04
64687;BME280;51113;53.646;-113.674;2023-05-07T08:04:25;93410.25;;;9.37;58.10
64687;BME280;51113;53.646;-113.674;2023-05-07T08:06:53;93439.28;;;9.49;58.49
64687;BME280;51113;53.646;-113.674;2023-05-07T08:09:22;93452.78;;;9.46;58.91
64687;BME280;51113;53.646;-113.674;2023-05-07T08:11:51;93443.69;;;9.49;58.89
64687;BME280;51113;53.646;-113.674;2023-05-07T08:14:19;93453.81;;;9.45;59.28
64687;BME280;51113;53.646;-113.674;2023-05-07T08:16:47;93447.56;;;9.41;59.44
64687;BME280;51113;53.646;-113.674;2023-05-07T08:19:16;93443.69;;;9.38;59.81
64687;BME280;51113;53.646;-113.674;2023-05-07T08:21:44;93424.47;;;9.19;60.25
64687;BME280;51113;53.646;-113.674;2023-05-07T08:24:15;93447.06;;;9.34;60.16
64687;BME280;51113;53.646;-113.674;2023-05-07T08:26:44;93454.56;;;9.30;60.44
64687;BME280;51113;53.646;-113.674;2023-05-07T08:29:13;93446.78;;;9.30;60.45
64687;BME280;51113;53.646;-113.674;2023-05-07T08:31:42;93443.41;;;9.30;60.42
64687;BME280;51113;53.646;-113.674;2023-05-07T08:34:10;93440.81;;;9.30;60.47
64687;BME280;51113;53.646;-113.674;2023-05-07T08:36:39;93446.53;;;9.32;60.40
64687;BME280;51113;53.646;-113.674;2023-05-07T08:39:09;93442.91;;;9.28;60.75
64687;BME280;51113;53.646;-113.674;2023-05-07T08:41:38;93444.97;;;9.26;61.16
64687;BME280;51113;53.646;-113.674;2023-05-07T08:44:12;93415.94;;;9.14;61.28
64687;BME280;51113;53.646;-113.674;2023-05-07T08:46:41;93404.78;;;9.03;61.17
64687;BME280;51113;53.646;-113.674;2023-05-07T08:49:11;93437.97;;;9.21;61.68
64687;BME280;51113;53.646;-113.674;2023-05-07T08:51:41;93437.69;;;9.18;61.75
64687;BME280;51113;53.646;-113.674;2023-05-07T08:54:10;93430.97;;;9.17;61.79
64687;BME280;51113;53.646;-113.674;2023-05-07T08:56:40;93404.50;;;8.94;62.15
64687;BME280;51113;53.646;-113.674;2023-05-07T08:59:09;93437.69;;;9.13;61.91
64687;BME280;51113;53.646;-113.674;2023-05-07T09:01:37;93435.63;;;9.15;63.81
64687;BME280;51113;53.646;-113.674;2023-05-07T09:04:06;93429.38;;;9.00;66.93
64687;BME280;51113;53.646;-113.674;2023-05-07T09:06:35;93424.66;;;8.82;68.32
64687;BME280;51113;53.646;-113.674;2023-05-07T09:09:06;93423.06;;;8.71;69.53
64687;BME280;51113;53.646;-113.674;2023-05-07T09:11:34;93431.25;;;8.48;72.64
64687;BME280;51113;53.646;-113.674;2023-05-07T09:14:03;93420.75;;;8.17;75.82
64687;BME280;51113;53.646;-113.674;2023-05-07T09:16:33;93409.50;;;7.96;76.83
64687;BME280;51113;53.646;-113.674;2023-05-07T09:19:02;93417.91;;;7.76;78.33
64687;BME280;51113;53.646;-113.674;2023-05-07T09:21:31;93412.13;;;7.64;80.63
64687;BME280;51113;53.646;-113.674;2023-05-07T09:24:01;93421.66;;;7.59;81.45
64687;BME280;51113;53.646;-113.674;2023-05-07T09:26:29;93402.09;;;7.36;82.00
64687;BME280;51113;53.646;-113.674;2023-05-07T09:28:59;93392.78;;;7.35;79.68
64687;BME280;51113;53.646;-113.674;2023-05-07T09:31:28;93388.59;;;7.29;81.37
64687;BME280;51113;53.646;-113.674;2023-05-07T09:33:57;93418.25;;;7.53;82.27
64687;BME280;51113;53.646;-113.674;2023-05-07T09:36:27;93421.63;;;7.54;80.27
64687;BME280;51113;53.646;-113.674;2023-05-07T09:38:55;93407.63;;;7.50;80.72
64687;BME280;51113;53.646;-113.674;2023-05-07T09:41:24;93411.44;;;7.42;81.39
64687;BME280;51113;53.646;-113.674;2023-05-07T09:43:54;93429.84;;;7.51;81.58
64687;BME280;51113;53.646;-113.674;2023-05-07T09:46:30;93424.41;;;7.47;82.11
64687;BME280;51113;53.646;-113.674;2023-05-07T09:49:02;93390.69;;;7.32;83.03
64687;BME280;51113;53.646;-113.674;2023-05-07T09:51:45;93417.44;;;7.48;82.92
64687;BME280;51113;53.646;-113.674;2023-05-07T09:54:16;93387.28;;;7.26;83.37
64687;BME280;51113;53.646;-113.674;2023-05-07T09:56:45;93425.38;;;7.41;83.63
64687;BME280;51113;53.646;-113.674;2023-05-07T09:59:16;93416.53;;;7.32;82.92
64687;BME280;51113;53.646;-113.674;2023-05-07T10:01:45;93414.16;;;7.25;83.74
64687;BME280;51113;53.646;-113.674;2023-05-07T10:04:14;93420.88;;;7.26;83.67
64687;BME280;51113;53.646;-113.674;2023-05-07T10:06:43;93402.94;;;7.15;84.69
64687;BME280;51113;53.646;-113.674;2023-05-07T10:09:13;93423.44;;;7.26;84.97
64687;BME280;51113;53.646;-113.674;2023-05-07T10:11:44;93419.56;;;7.24;85.01
64687;BME280;51113;53.646;-113.674;2023-05-07T10:14:14;93419.31;;;7.25;85.84
64687;BME280;51113;53.646;-113.674;2023-05-07T10:16:44;93418.28;;;7.26;86.03
64687;BME280;51113;53.646;-113.674;2023-05-07T10:19:13;93423.25;;;7.33;85.58
64687;BME280;51113;53.646;-113.674;2023-05-07T10:21:54;93420.66;;;7.33;86.28
64687;BME280;51113;53.646;-113.674;2023-05-07T10:24:32;93417.06;;;7.34;84.94
64687;BME280;51113;53.646;-113.674;2023-05-07T10:27:08;93412.44;;;7.36;85.36
64687;BME280;51113;53.646;-113.674;2023-05-07T10:35:06;93402.66;;;7.43;84.27
64687;BME280;51113;53.646;-113.674;2023-05-07T10:37:36;93411.97;;;7.44;83.67
64687;BME280;51113;53.646;-113.674;2023-05-07T10:40:05;93398.56;;;7.47;84.24
64687;BME280;51113;53.646;-113.674;2023-05-07T10:42:34;93406.88;;;7.54;84.35
64687;BME280;51113;53.646;-113.674;2023-05-07T10:45:13;93399.63;;;7.51;83.34
64687;BME280;51113;53.646;-113.674;2023-05-07T10:48:11;93393.47;;;7.57;83.04
64687;BME280;51113;53.646;-113.674;2023-05-07T10:51:19;93385.16;;;7.50;84.13
64687;BME280;51113;53.646;-113.674;2023-05-07T10:56:41;93379.09;;;7.34;85.51
64687;BME280;51113;53.646;-113.674;2023-05-07T11:01:56;93373.16;;;7.34;84.78
64687;BME280;51113;53.646;-113.674;2023-05-07T11:04:25;93356.72;;;7.13;85.68
64687;BME280;51113;53.646;-113.674;2023-05-07T11:15:12;93371.59;;;7.33;85.85
64687;BME280;51113;53.646;-113.674;2023-05-07T11:26:08;93378.59;;;7.37;84.42
64687;BME280;51113;53.646;-113.674;2023-05-07T11:28:43;93370.13;;;7.42;83.09
64687;BME280;51113;53.646;-113.674;2023-05-07T11:31:11;93371.09;;;7.36;83.75
64687;BME280;51113;53.646;-113.674;2023-05-07T11:33:40;93368.56;;;7.41;83.91
64687;BME280;51113;53.646;-113.674;2023-05-07T11:36:09;93347.78;;;7.26;84.24
64687;BME280;51113;53.646;-113.674;2023-05-07T11:38:38;93338.44;;;7.20;83.49
64687;BME280;51113;53.646;-113.674;2023-05-07T11:41:07;93335.88;;;7.25;83.86
64687;BME280;51113;53.646;-113.674;2023-05-07T11:43:36;93363.97;;;7.48;82.74
64687;BME280;51113;53.646;-113.674;2023-05-07T11:46:10;93361.88;;;7.45;83.27
64687;BME280;51113;53.646;-113.674;2023-05-07T11:48:39;93337.97;;;7.28;83.28
64687;BME280;51113;53.646;-113.674;2023-05-07T11:51:07;93332.81;;;7.28;82.61
64687;BME280;51113;53.646;-113.674;2023-05-07T11:53:45;93347.31;;;7.34;83.33
64687;BME280;51113;53.646;-113.674;2023-05-07T11:56:15;93364.41;;;7.40;83.11
64687;BME280;51113;53.646;-113.674;2023-05-07T11:58:46;93360.81;;;7.41;83.81
64687;BME280;51113;53.646;-113.674;2023-05-07T12:01:15;93359.78;;;7.42;83.56
64687;BME280;51113;53.646;-113.674;2023-05-07T12:03:45;93358.22;;;7.41;83.20
64687;BME280;51113;53.646;-113.674;2023-05-07T12:06:16;93328.69;;;7.27;82.47
64687;BME280;51113;53.646;-113.674;2023-05-07T12:08:45;93348.44;;;7.48;82.22
64687;BME280;51113;53.646;-113.674;2023-05-07T12:11:23;93344.31;;;7.47;82.77
64687;BME280;51113;53.646;-113.674;2023-05-07T12:13:54;93327.66;;;7.28;83.25
64687;BME280;51113;53.646;-113.674;2023-05-07T12:16:26;93325.59;;;7.30;82.75
64687;BME280;51113;53.646;-113.674;2023-05-07T12:18:56;93319.94;;;7.33;82.44
64687;BME280;51113;53.646;-113.674;2023-05-07T12:21:27;93341.75;;;7.52;82.70
64687;BME280;51113;53.646;-113.674;2023-05-07T12:23:56;93323.03;;;7.35;81.75
64687;BME280;51113;53.646;-113.674;2023-05-07T12:26:24;93323.03;;;7.35;81.77
64687;BME280;51113;53.646;-113.674;2023-05-07T12:28:53;93345.41;;;7.56;81.52
64687;BME280;51113;53.646;-113.674;2023-05-07T12:31:24;93333.50;;;7.55;82.08
64687;BME280;51113;53.646;-113.674;2023-05-07T12:33:54;93343.88;;;7.60;81.40
64687;BME280;51113;53.646;-113.674;2023-05-07T12:36:22;93342.84;;;7.61;82.29
64687;BME280;51113;53.646;-113.674;2023-05-07T12:38:51;93343.38;;;7.63;81.10
64687;BME280;51113;53.646;-113.674;2023-05-07T12:41:19;93322.19;;;7.61;80.80
64687;BME280;51113;53.646;-113.674;2023-05-07T12:43:56;93313.63;;;7.56;80.41
64687;BME280;51113;53.646;-113.674;2023-05-07T12:46:25;93341.34;;;7.70;81.16
64687;BME280;51113;53.646;-113.674;2023-05-07T12:48:53;93334.63;;;7.69;80.47
64687;BME280;51113;53.646;-113.674;2023-05-07T12:51:22;93329.47;;;7.69;79.99
64687;BME280;51113;53.646;-113.674;2023-05-07T12:53:50;93326.38;;;7.72;80.15
64687;BME280;51113;53.646;-113.674;2023-05-07T12:56:23;93325.34;;;7.73;79.33
64687;BME280;51113;53.646;-113.674;2023-05-07T12:58:57;93291.63;;;7.48;79.93
64687;BME280;51113;53.646;-113.674;2023-05-07T13:01:30;93339.84;;;7.80;79.85
64687;BME280;51113;53.646;-113.674;2023-05-07T13:04:05;93342.72;;;7.83;79.44
64687;BME280;51113;53.646;-113.674;2023-05-07T13:06:35;93343.50;;;7.84;79.54
64687;BME280;51113;53.646;-113.674;2023-05-07T13:09:04;93345.84;;;7.85;80.39
64687;BME280;51113;53.646;-113.674;2023-05-07T13:11:34;93310.34;;;7.70;80.06
64687;BME280;51113;53.646;-113.674;2023-05-07T13:14:02;93313.47;;;7.72;80.05
64687;BME280;51113;53.646;-113.674;2023-05-07T13:16:31;93336.31;;;7.96;79.56